Time;durP1;ratioP1;P1;durP2;ratioP2;P2;SDS_P1;SDS_P2;PMS_P1;PMS_P2;Temp;Humidity;BMP_temperature;BMP_pressure;BME280_temperature;BME280_humidity;BME280_pressure;Samples;Min_cycle;Max_cycle;Signal;HPM_P1;HPM_P2
2023/08/06 00:00:21;;;;;;;10.35;8.05;;;14.60;99.90;;;;;;5114725;28;20505;-62
2023/08/06 00:02:47;;;;;;;10.32;7.70;;;14.70;99.90;;;;;;5114651;28;20046;-60
2023/08/06 00:05:12;;;;;;;8.43;7.45;;;14.60;99.90;;;;;;5114321;28;20032;-60
2023/08/06 00:07:38;;;;;;;9.63;8.63;;;14.60;99.90;;;;;;5114559;28;20419;-59
2023/08/06 00:10:04;;;;;;;9.90;7.35;;;14.60;99.90;;;;;;5114537;28;20470;-61
2023/08/06 00:12:30;;;;;;;8.75;7.85;;;14.70;99.90;;;;;;5114242;28;20044;-60
2023/08/06 00:14:55;;;;;;;10.73;8.10;;;14.60;99.90;;;;;;5114299;28;20098;-60
2023/08/06 00:17:21;;;;;;;8.65;7.38;;;14.60;99.90;;;;;;5114356;28;20493;-60
2023/08/06 00:19:47;;;;;;;25.52;7.40;;;14.60;99.90;;;;;;5114202;28;20040;-61
2023/08/06 00:22:12;;;;;;;8.43;7.43;;;14.60;99.90;;;;;;5114178;27;20043;-60
2023/08/06 00:24:38;;;;;;;9.70;7.85;;;14.70;99.90;;;;;;5114321;28;20499;-60
2023/08/06 00:27:04;;;;;;;12.40;7.65;;;14.70;99.90;;;;;;5114425;28;20444;-61
2023/08/06 00:29:29;;;;;;;8.70;7.75;;;14.60;99.90;;;;;;5114227;28;20040;-61
2023/08/06 00:31:55;;;;;;;8.13;7.32;;;14.70;99.90;;;;;;5112985;28;20057;-61
2023/08/06 00:34:21;;;;;;;12.50;7.38;;;14.70;99.90;;;;;;5113716;28;20042;-61
2023/08/06 00:36:46;;;;;;;9.93;7.32;;;14.70;99.90;;;;;;5113980;28;20071;-61
2023/08/06 00:39:12;;;;;;;16.08;9.07;;;14.70;99.90;;;;;;5113892;28;20047;-61
2023/08/06 00:41:38;;;;;;;8.73;7.85;;;14.70;99.90;;;;;;5113763;28;20521;-60
2023/08/06 00:44:03;;;;;;;13.77;9.35;;;14.60;99.90;;;;;;5113713;28;20409;-61
2023/08/06 00:46:31;;;;;;;9.25;8.15;;;14.70;99.90;;;;;;5113569;27;20048;-61
2023/08/06 00:48:57;;;;;;;16.20;8.68;;;14.70;99.90;;;;;;5113497;28;20047;-59
2023/08/06 00:51:23;;;;;;;9.27;7.50;;;14.60;99.90;;;;;;5113999;28;20474;-61
2023/08/06 00:53:50;;;;;;;10.73;8.20;;;14.60;99.90;;;;;;5113785;28;20180;-61
2023/08/06 00:56:16;;;;;;;9.32;7.63;;;14.60;99.90;;;;;;5113488;28;20039;-61
2023/08/06 00:58:42;;;;;;;9.35;8.15;;;14.60;99.90;;;;;;5113344;28;20051;-61
2023/08/06 01:01:08;;;;;;;9.85;7.70;;;14.60;99.90;;;;;;5113250;28;20114;-60
2023/08/06 01:03:34;;;;;;;8.75;7.85;;;14.60;99.90;;;;;;5113232;28;20537;-60
2023/08/06 01:06:00;;;;;;;14.07;8.55;;;14.60;99.90;;;;;;5113136;28;20118;-60
2023/08/06 01:08:48;;;;;;;9.40;8.10;;;14.60;99.90;;;;;;5113479;28;20038;-59
2023/08/06 01:11:54;;;;;;;10.45;8.40;;;14.60;99.90;;;;;;5113091;28;20051;-60
2023/08/06 01:14:42;;;;;;;10.18;8.13;;;14.60;99.90;;;;;;5113347;28;20035;-61
2023/08/06 01:17:08;;;;;;;9.68;8.10;;;14.60;99.90;;;;;;5113412;28;20039;-60
2023/08/06 01:19:33;;;;;;;9.30;8.20;;;14.60;99.90;;;;;;5113226;27;20035;-61
2023/08/06 01:21:59;;;;;;;10.95;8.43;;;14.60;99.90;;;;;;5113101;28;20047;-59
2023/08/06 01:24:24;;;;;;;10.90;8.27;;;14.60;99.90;;;;;;5112557;28;20393;-59
2023/08/06 01:27:08;;;;;;;9.85;8.88;;;14.60;99.90;;;;;;5113186;28;20081;-59
2023/08/06 01:29:59;;;;;;;13.63;9.75;;;14.60;99.90;;;;;;5113000;28;20050;-60
2023/08/06 01:32:26;;;;;;;11.88;9.05;;;14.60;99.90;;;;;;5112827;28;20035;-60
2023/08/06 01:34:53;;;;;;;12.60;8.85;;;14.60;99.90;;;;;;5111965;28;20093;-61
2023/08/06 01:37:19;;;;;;;10.85;9.43;;;14.60;99.90;;;;;;5112768;28;20036;-61
2023/08/06 01:39:44;;;;;;;11.38;9.60;;;14.60;99.90;;;;;;5112726;28;20043;-61
2023/08/06 01:42:10;;;;;;;13.48;9.43;;;14.60;99.90;;;;;;5101953;28;20035;-60
2023/08/06 01:44:36;;;;;;;12.18;8.60;;;14.50;99.90;;;;;;5112293;28;20091;-61
2023/08/06 01:47:01;;;;;;;10.48;9.02;;;14.60;99.90;;;;;;5112350;28;20050;-61
2023/08/06 01:49:27;;;;;;;9.77;8.00;;;14.60;99.90;;;;;;5112372;28;20036;-61
2023/08/06 01:51:53;;;;;;;11.90;9.80;;;14.60;99.90;;;;;;5112566;28;20040;-61
2023/08/06 01:54:18;;;;;;;13.32;9.50;;;14.60;99.90;;;;;;5112542;28;20085;-61
2023/08/06 01:56:44;;;;;;;12.60;9.90;;;14.60;99.90;;;;;;5112493;28;20042;-61
2023/08/06 01:59:09;;;;;;;10.32;9.18;;;14.60;99.90;;;;;;5112327;28;20120;-59
2023/08/06 02:01:35;;;;;;;12.43;10.18;;;14.60;99.90;;;;;;5112285;28;20043;-60
2023/08/06 02:04:01;;;;;;;19.52;9.98;;;14.60;99.90;;;;;;5112570;28;20556;-60
2023/08/06 02:06:26;;;;;;;13.82;10.13;;;14.50;99.90;;;;;;5112223;28;20040;-60
2023/08/06 02:08:52;;;;;;;15.60;10.52;;;14.60;99.90;;;;;;5112517;28;20071;-60
2023/08/06 02:11:18;;;;;;;13.73;10.60;;;14.50;99.90;;;;;;5112319;28;20123;-61
2023/08/06 02:13:43;;;;;;;15.18;10.85;;;14.60;99.90;;;;;;5112195;28;20058;-61
2023/08/06 02:16:09;;;;;;;12.32;10.88;;;14.60;99.90;;;;;;5110928;28;20059;-61
2023/08/06 02:18:35;;;;;;;12.05;10.48;;;14.50;99.90;;;;;;5112164;28;20046;-60
2023/08/06 02:21:01;;;;;;;19.70;11.32;;;14.50;99.90;;;;;;5112440;28;20040;-61
2023/08/06 02:23:27;;;;;;;12.40;10.80;;;14.50;99.90;;;;;;5111154;28;20478;-60
2023/08/06 02:25:58;;;;;;;14.77;11.43;;;14.50;99.90;;;;;;5112281;28;20042;-59
2023/08/06 02:28:23;;;;;;;14.63;11.23;;;14.50;99.90;;;;;;5112322;28;20043;-60
2023/08/06 02:30:52;;;;;;;15.75;12.30;;;14.50;99.90;;;;;;5111977;28;20048;-60
2023/08/06 02:33:18;;;;;;;14.35;11.32;;;14.50;99.90;;;;;;5112705;28;20039;-60
2023/08/06 02:35:44;;;;;;;29.65;11.40;;;14.50;99.90;;;;;;5112005;28;20551;-60
2023/08/06 02:38:09;;;;;;;15.20;11.73;;;14.50;99.90;;;;;;5111961;28;20050;-60
2023/08/06 02:40:35;;;;;;;13.15;11.73;;;14.50;99.90;;;;;;5111854;28;20046;-60
2023/08/06 02:43:01;;;;;;;14.25;11.45;;;14.50;99.90;;;;;;5110933;28;20509;-60
2023/08/06 02:45:26;;;;;;;14.00;11.70;;;14.50;99.90;;;;;;5112512;28;20066;-60
2023/08/06 02:47:52;;;;;;;14.15;12.70;;;14.50;99.90;;;;;;5115905;28;20110;-60
2023/08/06 02:50:17;;;;;;;17.15;11.68;;;14.60;99.90;;;;;;5116019;28;20043;-59
2023/08/06 02:52:43;;;;;;;19.00;11.43;;;14.50;99.90;;;;;;5115946;28;20445;-59
2023/08/06 02:55:09;;;;;;;14.48;11.30;;;14.60;99.90;;;;;;5116169;28;20040;-60
2023/08/06 02:57:34;;;;;;;13.27;11.68;;;14.60;99.90;;;;;;5115969;28;20038;-59
2023/08/06 03:00:00;;;;;;;15.50;11.35;;;14.50;99.90;;;;;;5116305;28;20535;-61
2023/08/06 03:02:25;;;;;;;15.63;12.75;;;14.60;99.90;;;;;;5115929;28;20038;-60
2023/08/06 03:04:51;;;;;;;17.40;11.93;;;14.60;99.90;;;;;;5115818;28;20070;-61
2023/08/06 03:07:17;;;;;;;12.85;11.55;;;14.60;99.90;;;;;;5115747;28;20071;-60
2023/08/06 03:09:42;;;;;;;14.18;12.23;;;14.50;99.90;;;;;;5115548;28;20039;-59
2023/08/06 03:12:08;;;;;;;14.25;11.48;;;14.60;99.90;;;;;;5115661;28;20047;-60
2023/08/06 03:14:34;;;;;;;11.70;10.60;;;14.60;99.90;;;;;;5115701;27;20362;-60
2023/08/06 03:16:59;;;;;;;15.45;10.93;;;14.60;99.90;;;;;;5115352;28;20396;-60
2023/08/06 03:19:25;;;;;;;12.88;11.00;;;14.60;99.90;;;;;;5115817;28;20092;-60
2023/08/06 03:21:50;;;;;;;21.00;10.52;;;14.60;99.90;;;;;;5115409;28;20438;-61
2023/08/06 03:24:16;;;;;;;18.30;11.65;;;14.60;99.90;;;;;;5115728;28;20032;-61
2023/08/06 03:26:42;;;;;;;12.73;11.25;;;14.60;99.90;;;;;;5115350;28;20096;-61
2023/08/06 03:29:07;;;;;;;13.73;10.32;;;14.60;99.90;;;;;;5115480;28;20047;-60
2023/08/06 03:31:33;;;;;;;11.73;9.73;;;14.60;99.90;;;;;;5115071;28;20394;-60
2023/08/06 03:33:58;;;;;;;11.43;10.23;;;14.60;99.90;;;;;;5115761;28;20035;-60
2023/08/06 03:36:24;;;;;;;11.73;10.52;;;14.60;99.90;;;;;;5115589;28;20104;-60
2023/08/06 03:38:51;;;;;;;15.02;9.52;;;14.70;99.90;;;;;;5115708;28;20044;-61
2023/08/06 03:41:16;;;;;;;13.07;10.30;;;14.60;99.90;;;;;;5113786;28;20104;-60
2023/08/06 03:43:42;;;;;;;13.50;10.05;;;14.60;99.90;;;;;;5114815;28;20068;-61
2023/08/06 03:46:07;;;;;;;10.18;9.07;;;14.60;99.90;;;;;;5115133;28;20047;-60
2023/08/06 03:48:33;;;;;;;12.60;10.50;;;14.60;99.90;;;;;;5115300;28;20046;-61
2023/08/06 03:51:01;;;;;;;12.45;9.63;;;14.60;99.90;;;;;;5114916;28;20036;-60
2023/08/06 03:53:27;;;;;;;12.40;11.10;;;14.70;99.90;;;;;;5114895;28;20071;-60
2023/08/06 03:55:59;;;;;;;11.65;9.18;;;14.50;99.90;;;;;;5115274;28;20059;-60
2023/08/06 03:58:25;;;;;;;11.35;9.70;;;14.70;99.90;;;;;;5114066;28;20489;-60
2023/08/06 04:01:01;;;;;;;9.43;8.32;;;14.60;99.90;;;;;;5114773;28;20036;-60
2023/08/06 04:03:27;;;;;;;13.57;9.30;;;14.60;99.90;;;;;;5115166;28;20472;-60
2023/08/06 04:05:52;;;;;;;9.73;8.63;;;14.60;99.90;;;;;;5114905;28;20077;-60
2023/08/06 04:08:18;;;;;;;11.77;8.98;;;14.60;99.90;;;;;;5114658;28;20398;-60
2023/08/06 04:10:43;;;;;;;12.85;8.38;;;14.70;99.90;;;;;;5114742;27;20051;-60
2023/08/06 04:13:09;;;;;;;9.95;7.55;;;14.70;99.90;;;;;;5114386;28;20420;-60
2023/08/06 04:15:35;;;;;;;9.98;8.93;;;14.70;99.90;;;;;;5114768;28;20039;-60
2023/08/06 04:18:00;;;;;;;9.30;7.80;;;14.70;99.90;;;;;;5114262;28;20035;-62
2023/08/06 04:20:26;;;;;;;8.20;7.15;;;14.70;99.90;;;;;;5114326;28;20028;-61
2023/08/06 04:22:54;;;;;;;9.15;8.13;;;14.70;99.90;;;;;;5114417;28;20044;-60
2023/08/06 04:25:20;;;;;;;8.63;7.72;;;14.70;99.90;;;;;;5114545;28;20106;-59
2023/08/06 04:27:49;;;;;;;9.38;8.00;;;14.70;99.90;;;;;;5114416;28;20031;-59
2023/08/06 04:30:15;;;;;;;11.00;7.80;;;14.80;99.90;;;;;;5114310;28;20035;-59
2023/08/06 04:32:41;;;;;;;11.73;8.27;;;14.60;99.90;;;;;;5114313;28;20040;-59
2023/08/06 04:35:07;;;;;;;9.23;8.00;;;14.70;99.90;;;;;;5114362;28;20046;-59
2023/08/06 04:37:33;;;;;;;8.75;7.85;;;14.70;99.90;;;;;;5114536;27;20032;-59
2023/08/06 04:39:58;;;;;;;10.93;9.23;;;14.70;99.90;;;;;;5114272;28;20043;-59
2023/08/06 04:42:24;;;;;;;8.85;7.90;;;14.70;99.90;;;;;;5113886;28;20089;-59
2023/08/06 04:44:50;;;;;;;10.43;8.10;;;14.70;99.90;;;;;;5114053;28;20052;-59
2023/08/06 04:47:16;;;;;;;10.82;9.40;;;14.60;99.90;;;;;;5114108;28;20040;-59
2023/08/06 04:49:41;;;;;;;11.73;9.40;;;14.60;99.90;;;;;;5112867;28;20100;-59
2023/08/06 04:52:07;;;;;;;12.30;10.07;;;14.60;99.90;;;;;;5114189;28;20120;-59
2023/08/06 04:54:33;;;;;;;10.55;8.88;;;14.60;99.90;;;;;;5113777;28;20541;-59
2023/08/06 04:56:59;;;;;;;15.15;9.75;;;14.60;99.90;;;;;;5112611;28;20060;-60
2023/08/06 04:59:25;;;;;;;12.70;9.77;;;14.70;99.90;;;;;;5113991;28;20114;-59
2023/08/06 05:01:50;;;;;;;11.90;9.23;;;14.60;99.90;;;;;;5114177;28;20035;-59
2023/08/06 05:04:16;;;;;;;11.43;9.77;;;14.60;99.90;;;;;;5114183;28;20145;-60
2023/08/06 05:06:41;;;;;;;10.95;9.85;;;14.60;99.90;;;;;;5114301;28;20039;-60
2023/08/06 05:09:07;;;;;;;9.48;8.35;;;14.60;99.90;;;;;;5112869;28;20035;-61
2023/08/06 05:11:33;;;;;;;16.02;8.77;;;14.60;99.90;;;;;;5113309;28;20482;-60
2023/08/06 05:13:58;;;;;;;12.52;8.00;;;14.70;99.90;;;;;;5113813;27;20035;-60
2023/08/06 05:16:24;;;;;;;11.55;9.02;;;14.60;99.90;;;;;;5113910;28;20043;-59
2023/08/06 05:18:50;;;;;;;9.68;8.30;;;14.50;99.90;;;;;;5113833;28;20066;-60
2023/08/06 05:21:16;;;;;;;10.70;8.23;;;14.60;99.90;;;;;;5113733;28;20032;-60
2023/08/06 05:23:42;;;;;;;11.98;9.30;;;14.60;99.90;;;;;;5113651;27;20043;-59
2023/08/06 05:26:08;;;;;;;13.63;8.93;;;14.60;99.90;;;;;;5113551;28;20039;-59
2023/08/06 05:28:34;;;;;;;13.38;9.25;;;14.60;99.90;;;;;;5113566;28;20043;-59
2023/08/06 05:31:03;;;;;;;12.02;9.15;;;14.60;99.90;;;;;;5113408;28;20036;-58
2023/08/06 05:33:29;;;;;;;12.32;9.35;;;14.70;99.90;;;;;;5113304;28;20035;-59
2023/08/06 05:35:55;;;;;;;10.65;8.40;;;14.70;99.90;;;;;;5113475;28;20027;-60
2023/08/06 05:38:20;;;;;;;10.00;9.00;;;14.70;99.90;;;;;;5113429;28;20027;-59
2023/08/06 05:40:46;;;;;;;10.18;8.90;;;14.70;99.90;;;;;;5113169;28;20444;-60
2023/08/06 05:43:12;;;;;;;11.60;8.40;;;14.80;99.90;;;;;;5113190;28;20126;-60
2023/08/06 05:45:37;;;;;;;11.77;9.20;;;14.90;99.90;;;;;;5113211;28;20449;-60
2023/08/06 05:48:03;;;;;;;14.43;9.15;;;14.90;99.90;;;;;;5113162;28;20172;-60
2023/08/06 05:50:29;;;;;;;10.52;9.43;;;15.00;99.90;;;;;;5113024;28;20043;-60
2023/08/06 05:52:54;;;;;;;12.07;9.88;;;15.00;99.90;;;;;;5113062;28;20038;-61
2023/08/06 05:55:20;;;;;;;10.45;9.40;;;15.10;99.90;;;;;;5113141;28;20043;-61
2023/08/06 05:57:46;;;;;;;15.10;9.70;;;15.00;99.90;;;;;;5103844;28;20032;-59
2023/08/06 06:00:12;;;;;;;14.57;10.77;;;15.10;99.90;;;;;;5113020;28;20508;-59
2023/08/06 06:02:37;;;;;;;10.73;9.63;;;15.20;99.90;;;;;;5112940;28;20128;-60
2023/08/06 06:05:03;;;;;;;11.45;9.75;;;15.20;99.90;;;;;;5112971;28;20043;-59
2023/08/06 06:07:29;;;;;;;12.02;10.20;;;15.30;99.90;;;;;;5113331;27;20036;-60
2023/08/06 06:09:54;;;;;;;10.90;9.27;;;15.40;99.90;;;;;;5112508;28;20069;-60
2023/08/06 06:12:22;;;;;;;12.00;10.00;;;15.30;99.90;;;;;;5112676;28;20134;-59
2023/08/06 06:14:47;;;;;;;12.43;10.40;;;15.30;99.90;;;;;;5113010;28;20178;-60
2023/08/06 06:17:13;;;;;;;13.32;10.05;;;15.50;99.90;;;;;;5112533;28;20036;-60
2023/08/06 06:19:39;;;;;;;13.80;9.57;;;15.50;99.90;;;;;;5107990;28;20531;-59
2023/08/06 06:22:04;;;;;;;14.05;9.82;;;15.60;99.90;;;;;;5106341;28;20486;-59
2023/08/06 06:24:30;;;;;;;11.73;9.75;;;15.50;99.90;;;;;;5109389;28;20154;-59
2023/08/06 06:26:55;;;;;;;10.57;9.45;;;15.50;99.90;;;;;;5104906;28;20039;-60
2023/08/06 06:29:21;;;;;;;12.05;9.45;;;15.60;99.90;;;;;;5112682;28;20039;-60
2023/08/06 06:31:47;;;;;;;10.02;9.02;;;15.60;99.90;;;;;;5112660;28;20047;-60
2023/08/06 06:34:12;;;;;;;13.85;9.20;;;15.60;99.90;;;;;;5112588;28;20045;-62
2023/08/06 06:36:38;;;;;;;9.30;8.25;;;15.70;99.90;;;;;;5112570;28;20046;-60
2023/08/06 06:39:04;;;;;;;10.68;8.40;;;15.70;99.90;;;;;;5112344;28;20032;-60
2023/08/06 06:41:31;;;;;;;10.60;8.95;;;15.80;99.90;;;;;;5112774;28;20386;-61
2023/08/06 06:43:57;;;;;;;9.93;7.88;;;16.00;99.90;;;;;;5112709;28;20090;-60
2023/08/06 06:46:22;;;;;;;11.55;8.07;;;16.00;99.90;;;;;;5112317;28;20071;-62
2023/08/06 06:48:48;;;;;;;9.32;7.85;;;16.00;99.90;;;;;;5112390;28;20088;-61
2023/08/06 06:51:14;;;;;;;10.20;7.38;;;16.10;99.90;;;;;;5104463;28;20036;-61
2023/08/06 06:53:40;;;;;;;8.02;6.78;;;16.10;99.90;;;;;;5094291;28;20527;-61
2023/08/06 06:56:06;;;;;;;9.10;7.47;;;16.10;99.90;;;;;;5112661;28;20043;-61
2023/08/06 06:58:32;;;;;;;7.75;6.70;;;16.10;99.90;;;;;;5112441;28;20043;-61
2023/08/06 07:00:58;;;;;;;7.20;6.47;;;16.20;99.90;;;;;;5112199;28;20382;-60
2023/08/06 07:03:23;;;;;;;10.13;7.07;;;16.30;99.90;;;;;;5112266;28;20046;-61
2023/08/06 07:05:50;;;;;;;8.80;6.47;;;16.30;99.90;;;;;;5112387;28;20497;-60
2023/08/06 07:08:16;;;;;;;11.07;6.82;;;16.30;99.90;;;;;;5112353;28;20035;-61
2023/08/06 07:10:42;;;;;;;8.05;6.03;;;16.40;99.90;;;;;;5112666;28;20143;-61
2023/08/06 07:13:08;;;;;;;11.20;5.88;;;16.40;99.90;;;;;;5112355;28;20039;-61
2023/08/06 07:15:34;;;;;;;7.45;5.95;;;16.50;99.90;;;;;;5112422;28;20114;-61
2023/08/06 07:17:59;;;;;;;10.63;6.30;;;16.60;99.90;;;;;;5112087;28;20051;-60
2023/08/06 07:20:25;;;;;;;8.35;5.68;;;16.60;99.90;;;;;;5106667;28;20039;-61
2023/08/06 07:22:51;;;;;;;5.85;5.20;;;16.60;99.90;;;;;;5112512;28;20032;-61
2023/08/06 07:25:17;;;;;;;6.18;5.50;;;16.80;99.90;;;;;;5112101;28;20066;-61
2023/08/06 07:27:43;;;;;;;6.22;5.63;;;16.90;99.90;;;;;;5112482;28;20062;-60
2023/08/06 07:30:08;;;;;;;8.02;6.25;;;17.20;99.90;;;;;;5112056;28;20075;-60
2023/08/06 07:32:34;;;;;;;6.35;5.60;;;17.50;99.90;;;;;;5112573;28;20538;-60
2023/08/06 07:35:00;;;;;;;6.93;5.45;;;17.70;99.90;;;;;;5115730;28;20038;-60
2023/08/06 07:37:29;;;;;;;5.18;4.68;;;18.00;99.90;;;;;;5115735;28;20063;-61
2023/08/06 07:39:58;;;;;;;;;;;18.40;99.90;;;;;;5116227;28;20036;-60
2023/08/06 07:42:23;;;;;;;5.90;4.90;;;18.80;99.90;;;;;;5115337;28;20369;-61
2023/08/06 07:44:54;;;;;;;7.90;4.95;;;19.00;99.90;;;;;;5131193;27;20059;-61
2023/08/06 07:47:20;;;;;;;4.97;4.45;;;19.10;99.90;;;;;;5115359;28;20031;-61
2023/08/06 07:49:46;;;;;;;7.53;4.18;;;19.40;99.90;;;;;;5108709;28;20043;-60
2023/08/06 07:52:11;;;;;;;3.85;3.45;;;19.70;99.90;;;;;;5107763;28;20040;-60
2023/08/06 07:54:37;;;;;;;4.80;3.95;;;20.00;99.90;;;;;;5110160;28;20033;-60
2023/08/06 07:57:03;;;;;;;4.93;3.90;;;20.20;99.90;;;;;;5106362;28;20040;-60
2023/08/06 07:59:28;;;;;;;4.93;3.65;;;20.60;99.90;;;;;;5114920;28;20110;-59
2023/08/06 08:01:54;;;;;;;4.68;3.47;;;20.90;99.90;;;;;;5114882;28;20041;-59
2023/08/06 08:04:20;;;;;;;5.25;3.75;;;21.30;99.90;;;;;;5114755;28;20046;-59
2023/08/06 08:06:47;;;;;;;3.90;3.38;;;21.20;99.90;;;;;;5114763;28;20555;-58
2023/08/06 08:09:13;;;;;;;4.57;3.22;;;21.20;99.90;;;;;;5114799;28;20035;-60
2023/08/06 08:11:39;;;;;;;4.00;3.00;;;21.60;99.90;;;;;;5114589;28;20082;-59
2023/08/06 08:14:05;;;;;;;8.70;2.83;;;21.90;99.90;;;;;;5114443;28;20034;-58
2023/08/06 08:16:31;;;;;;;3.75;2.78;;;22.30;99.90;;;;;;5113526;28;20394;-59
2023/08/06 08:18:56;;;;;;;3.45;2.70;;;23.00;99.90;;;;;;5114394;28;20035;-59
2023/08/06 08:21:24;;;;;;;5.22;2.80;;;23.10;99.90;;;;;;5102374;28;20038;-60
2023/08/06 08:23:50;;;;;;;3.17;2.45;;;23.20;99.90;;;;;;5114147;28;20061;-60
2023/08/06 08:26:15;;;;;;;3.85;2.97;;;23.00;99.90;;;;;;5102018;28;20035;-59
2023/08/06 08:28:41;;;;;;;5.50;2.47;;;23.00;99.90;;;;;;5114294;28;20062;-60
2023/08/06 08:31:11;;;;;;;5.05;2.90;;;23.10;99.90;;;;;;5113293;27;20361;-61
2023/08/06 08:33:39;;;;;;;3.15;2.58;;;23.30;99.90;;;;;;5114119;28;20058;-60
2023/08/06 08:36:05;;;;;;;5.10;2.33;;;23.20;99.90;;;;;;5114282;28;20058;-60
2023/08/06 08:38:30;;;;;;;5.63;2.60;;;23.10;99.90;;;;;;5113995;28;20473;-60
2023/08/06 08:40:56;;;;;;;3.90;2.22;;;22.80;99.90;;;;;;5114299;28;20040;-60
2023/08/06 08:43:22;;;;;;;3.28;2.38;;;22.80;99.90;;;;;;5113567;28;20063;-61
2023/08/06 08:45:51;;;;;;;4.68;2.42;;;22.80;99.90;;;;;;5114178;27;20404;-59
2023/08/06 08:48:21;;;;;;;6.40;2.35;;;22.80;99.90;;;;;;5113707;28;20507;-60
2023/08/06 08:50:48;;;;;;;2.33;1.73;;;22.30;99.90;;;;;;5112386;28;20051;-60
2023/08/06 08:53:16;;;;;;;2.13;1.40;;;22.10;99.90;;;;;;5113780;28;20038;-61
2023/08/06 08:55:44;;;;;;;2.45;1.77;;;22.50;99.90;;;;;;5112273;28;20107;-60
2023/08/06 08:58:10;;;;;;;2.38;1.75;;;22.60;99.90;;;;;;5095171;28;20046;-61
2023/08/06 09:00:36;;;;;;;2.67;1.48;;;22.80;99.90;;;;;;5113497;28;20035;-60
2023/08/06 09:03:06;;;;;;;4.13;1.70;;;23.00;99.90;;;;;;5113420;28;20039;-60
2023/08/06 09:05:32;;;;;;;4.13;1.65;;;23.30;99.90;;;;;;5113632;28;20385;-59
2023/08/06 09:08:03;;;;;;;2.90;1.70;;;23.30;99.90;;;;;;5113514;28;20035;-62
2023/08/06 09:10:29;;;;;;;2.08;1.25;;;23.30;99.90;;;;;;5113527;28;20031;-60
2023/08/06 09:12:56;;;;;;;3.45;2.05;;;23.00;99.90;;;;;;5113159;28;20489;-59
2023/08/06 09:15:25;;;;;;;3.97;1.60;;;23.30;99.90;;;;;;5113416;28;20042;-60
2023/08/06 09:17:55;;;;;;;4.13;2.20;;;23.30;99.90;;;;;;5113395;28;20388;-60
2023/08/06 09:20:21;;;;;;;2.30;1.75;;;23.20;99.90;;;;;;5110441;28;20050;-60
2023/08/06 09:22:48;;;;;;;1.98;1.77;;;23.30;99.90;;;;;;5113219;28;20044;-60
2023/08/06 09:25:24;;;;;;;3.70;1.80;;;23.00;99.90;;;;;;5109160;28;20069;-60
2023/08/06 09:27:51;;;;;;;1.73;1.27;;;22.70;99.90;;;;;;5113056;28;20097;-60
2023/08/06 09:30:36;;;;;;;1.90;1.30;;;22.70;99.90;;;;;;5113286;28;20042;-59
2023/08/06 09:33:02;;;;;;;2.55;1.63;;;22.60;99.90;;;;;;5113116;28;20393;-60
2023/08/06 09:35:30;;;;;;;1.63;1.52;;;22.60;99.90;;;;;;5112664;28;20097;-60
2023/08/06 09:37:56;;;;;;;3.13;1.70;;;22.60;99.90;;;;;;5112009;28;20043;-60
2023/08/06 09:40:29;;;;;;;2.47;1.88;;;22.60;99.90;;;;;;5112527;28;20481;-61
2023/08/06 09:42:56;;;;;;;5.45;1.92;;;22.60;99.90;;;;;;5103808;28;20068;-60
2023/08/06 09:45:22;;;;;;;2.22;1.75;;;22.70;99.90;;;;;;5107629;28;20043;-60
2023/08/06 09:47:49;;;;;;;3.53;1.83;;;22.70;99.90;;;;;;5112901;28;20103;-61
2023/08/06 09:50:19;;;;;;;3.03;1.52;;;22.70;99.90;;;;;;5110596;28;20481;-61
2023/08/06 09:52:45;;;;;;;2.25;1.88;;;22.80;99.90;;;;;;5112353;28;20065;-61
2023/08/06 09:55:14;;;;;;;3.78;1.45;;;22.70;99.90;;;;;;5111170;28;20047;-61
2023/08/06 09:57:43;;;;;;;2.15;1.50;;;22.80;99.90;;;;;;5112597;28;20036;-61
2023/08/06 10:00:10;;;;;;;5.45;1.55;;;22.80;99.90;;;;;;5112635;28;20046;-60
2023/08/06 10:02:40;;;;;;;4.63;1.55;;;22.90;99.90;;;;;;5111163;28;20084;-60
2023/08/06 10:05:07;;;;;;;2.17;1.40;;;23.00;99.90;;;;;;5112488;28;20032;-60
2023/08/06 10:07:34;;;;;;;2.90;1.70;;;23.00;99.90;;;;;;5112775;28;20118;-61
2023/08/06 10:10:00;;;;;;;3.00;1.23;;;23.00;99.90;;;;;;5112531;28;20031;-60
2023/08/06 10:12:31;;;;;;;2.90;1.65;;;23.20;99.90;;;;;;5112486;28;20122;-60
2023/08/06 10:15:01;;;;;;;3.58;1.67;;;23.40;99.90;;;;;;5112172;28;20116;-60
2023/08/06 10:17:28;;;;;;;2.42;1.30;;;23.20;99.90;;;;;;5112221;28;20043;-61
2023/08/06 10:19:56;;;;;;;1.75;1.55;;;23.30;99.90;;;;;;5105787;28;20122;-59
2023/08/06 10:22:23;;;;;;;5.80;1.60;;;23.30;99.90;;;;;;5112522;28;20040;-59
2023/08/06 10:25:06;;;;;;;3.88;1.98;;;23.30;99.90;;;;;;5105575;28;20048;-59
2023/08/06 10:27:32;;;;;;;4.85;1.63;;;23.20;99.90;;;;;;5112203;28;20054;-60
2023/08/06 10:30:32;;;;;;;3.90;1.75;;;23.20;99.90;;;;;;5112117;28;20043;-61
2023/08/06 10:33:02;;;;;;;2.13;1.50;;;23.30;99.90;;;;;;5112435;28;20040;-60
2023/08/06 10:35:44;;;;;;;2.35;1.70;;;23.30;99.90;;;;;;5112412;28;20055;-60
2023/08/06 10:38:11;;;;;;;2.65;1.83;;;23.20;99.90;;;;;;5112283;28;20107;-60
2023/08/06 10:40:40;;;;;;;2.65;1.67;;;23.00;99.90;;;;;;5111908;28;20444;-60
2023/08/06 10:43:08;;;;;;;2.70;1.83;;;22.80;99.90;;;;;;5112040;28;20076;-61
2023/08/06 10:45:35;;;;;;;3.07;2.00;;;22.80;99.90;;;;;;5112137;28;20043;-60
2023/08/06 10:48:01;;;;;;;2.60;2.25;;;22.80;99.90;;;;;;5111919;28;20277;-61
2023/08/06 10:50:27;;;;;;;3.60;1.92;;;22.70;99.90;;;;;;5111798;28;20040;-61
2023/08/06 10:52:53;;;;;;;2.95;1.70;;;22.60;99.90;;;;;;5111780;28;20079;-61
2023/08/06 10:55:26;;;;;;;2.15;1.75;;;22.50;99.90;;;;;;5109032;28;20039;-60
2023/08/06 10:57:52;;;;;;;5.18;1.80;;;22.40;99.90;;;;;;5111912;28;20038;-61
2023/08/06 11:00:18;;;;;;;2.13;1.85;;;22.30;99.90;;;;;;5111860;28;20040;-61
2023/08/06 11:02:46;;;;;;;3.25;1.75;;;22.20;99.90;;;;;;5111871;28;20038;-60
2023/08/06 11:05:12;;;;;;;3.40;1.70;;;22.30;99.90;;;;;;5112072;28;20366;-60
2023/08/06 11:07:38;;;;;;;1.73;1.50;;;22.10;99.90;;;;;;5114367;28;20039;-61
2023/08/06 11:10:06;;;;;;;3.45;1.45;;;22.10;99.90;;;;;;5115919;28;20055;-60
2023/08/06 11:12:32;;;;;;;1.87;1.40;;;22.00;99.90;;;;;;5115756;28;20043;-60
2023/08/06 11:14:59;;;;;;;2.90;1.55;;;21.90;99.90;;;;;;5114561;28;20286;-61
2023/08/06 11:17:25;;;;;;;1.73;1.48;;;21.80;99.90;;;;;;5114471;28;20115;-62
2023/08/06 11:19:53;;;;;;;4.57;2.45;;;21.70;99.90;;;;;;5107670;28;20109;-60
2023/08/06 11:22:20;;;;;;;6.82;3.60;;;21.70;99.90;;;;;;5087070;28;20111;-59
2023/08/06 11:24:45;;;;;;;1.83;1.50;;;21.70;99.90;;;;;;5110248;28;20032;-61
2023/08/06 11:27:15;;;;;;;2.85;1.50;;;21.60;99.90;;;;;;5113595;28;20139;-60
2023/08/06 11:29:41;;;;;;;2.97;1.80;;;21.60;99.90;;;;;;5115511;28;20043;-60
2023/08/06 11:32:08;;;;;;;1.60;1.42;;;21.70;99.90;;;;;;5115130;28;20039;-60
2023/08/06 11:34:34;;;;;;;2.33;1.67;;;21.70;99.90;;;;;;5115318;28;20508;-59
2023/08/06 11:37:00;;;;;;;2.45;1.90;;;21.80;99.90;;;;;;5114952;27;20530;-60
2023/08/06 11:39:26;;;;;;;2.33;1.63;;;22.00;99.90;;;;;;5115842;28;20044;-60
2023/08/06 11:41:52;;;;;;;3.75;1.35;;;22.20;99.90;;;;;;5115718;28;20546;-60
2023/08/06 11:44:22;;;;;;;3.53;1.80;;;22.30;99.90;;;;;;5114814;28;20039;-60
2023/08/06 11:46:56;;;;;;;1.60;1.50;;;22.50;99.90;;;;;;5115067;28;20497;-60
2023/08/06 11:49:46;;;;;;;3.83;1.45;;;22.60;99.90;;;;;;5114421;28;20063;-60
2023/08/06 11:52:18;;;;;;;2.20;1.45;;;22.90;99.90;;;;;;5114975;28;20447;-59
2023/08/06 11:54:44;;;;;;;3.03;1.80;;;23.00;99.90;;;;;;5114302;28;20092;-61
2023/08/06 11:57:11;;;;;;;2.22;1.30;;;23.00;99.90;;;;;;5114972;28;20036;-61
2023/08/06 11:59:38;;;;;;;2.35;1.65;;;23.00;99.90;;;;;;5114572;28;20039;-60
2023/08/06 12:02:08;;;;;;;2.92;1.55;;;23.00;99.90;;;;;;5114616;28;20409;-60
2023/08/06 12:05:04;;;;;;;3.35;1.63;;;23.10;99.90;;;;;;5114562;28;20074;-61
2023/08/06 12:07:36;;;;;;;2.17;1.63;;;23.00;99.90;;;;;;5114892;28;20049;-61
2023/08/06 12:10:02;;;;;;;4.18;1.52;;;22.80;99.90;;;;;;5114441;28;20089;-60
2023/08/06 12:12:28;;;;;;;1.80;1.40;;;22.90;99.90;;;;;;5114583;28;20513;-61
2023/08/06 12:14:54;;;;;;;2.03;1.60;;;22.90;99.90;;;;;;5114737;28;20080;-60
2023/08/06 12:17:20;;;;;;;7.30;4.13;;;22.90;99.90;;;;;;5113343;28;20032;-61
2023/08/06 12:19:48;;;;;;;44.03;31.50;;;22.90;99.90;;;;;;5108217;27;20092;-60
2023/08/06 12:22:15;;;;;;;15.02;11.90;;;23.00;99.90;;;;;;5114626;28;20072;-61
2023/08/06 12:24:42;;;;;;;3.72;2.42;;;23.00;99.90;;;;;;5108547;28;20470;-61
2023/08/06 12:27:08;;;;;;;13.88;9.48;;;22.90;99.90;;;;;;5099046;28;20035;-61
2023/08/06 12:29:33;;;;;;;8.75;5.50;;;22.90;99.90;;;;;;5114316;28;20111;-59
2023/08/06 12:31:59;;;;;;;5.22;3.90;;;22.80;99.90;;;;;;5113905;28;20439;-60
2023/08/06 12:34:25;;;;;;;4.88;2.35;;;22.80;99.90;;;;;;5102306;28;20047;-60
2023/08/06 12:36:50;;;;;;;5.65;2.15;;;22.80;99.90;;;;;;5111649;28;20035;-60
2023/08/06 12:39:16;;;;;;;2.15;1.50;;;22.80;99.90;;;;;;5114389;28;20768;-60